You are not logged in, Click here to log in
洛杉磯國際機場LAX / KLAX 美國加州大洛杉磯地區
ICAO: KLAX Country: 美國加州大洛杉磯地區
Latitude: 33.9416 Longitude: -118.409
Total Arrivals: 47 Total Departures: 35
Latest Arrival: AA629241 (KMIA-KLAX)Allen. Lee Latest Departure: CI5117 (KLAX-RCTP)Allen. Lee
Scenery:
METAR : KLAX 031753Z 27007KT 5SM BCFG BR SCT009 22/17 A2996 RMK AO2 SLP144 VIS SW-W 1 1/2 SCT V BKN T02170167 10217 20183 53006 $

洛杉磯國際機場LAX

You are accessing this site from IP address 34.200.243.114. Virtual Airline. CMS by phpVMS.Website designed by Zumeweb and edited by Theo Bearman.
There is 0 User(s) Online: | and 8 Guest(s) Online.
All information on this site is for fight simulation purposes only. This site is for flight logging for pilots of Virtual Airline&模擬飛行論壇 FlySim only.